Time;durP1;ratioP1;P1;durP2;ratioP2;P2;SDS_P1;SDS_P2;PMS_P1;PMS_P2;Temp;Humidity;BMP_temperature;BMP_pressure;BME280_temperature;BME280_humidity;BME280_pressure;Samples;Min_cycle;Max_cycle;Signal;HPM_P1;HPM_P2
2023/03/07 00:01:05;;;;;;;;;;;;;;;2.31;100.00;97668.00;4455083;32;20037;-67
2023/03/07 00:03:33;;;;;;;;;;;;;;;2.38;100.00;97677.91;4454983;32;20115;-67
2023/03/07 00:06:01;;;;;;;;;;;;;;;2.42;100.00;97677.59;4455086;32;20630;-67
2023/03/07 00:08:29;;;;;;;;;;;;;;;2.46;100.00;97678.97;4455112;32;19999;-67
2023/03/07 00:11:04;;;;;;;;;;;;;;;2.44;100.00;97682.63;4448500;32;19980;-67
2023/03/07 00:13:32;;;;;;;;;;;;;;;2.48;100.00;97678.88;4444108;32;19994;-67
2023/03/07 00:16:03;;;;;;;;;;;;;;;2.57;100.00;97683.34;4455017;32;19972;-67
2023/03/07 00:18:31;;;;;;;;;;;;;;;2.56;100.00;97678.31;4455242;32;19996;-67
2023/03/07 00:20:58;;;;;;;;;;;;;;;2.54;100.00;97678.41;4454761;32;19980;-67
2023/03/07 00:23:26;;;;;;;;;;;;;;;2.50;100.00;97692.53;4455049;32;19980;-67
2023/03/07 00:26:00;;;;;;;;;;;;;;;2.55;100.00;97687.81;4454887;32;19980;-67
2023/03/07 00:28:28;;;;;;;;;;;;;;;2.53;100.00;97691.44;4454932;32;19980;-67
2023/03/07 00:31:00;;;;;;;;;;;;;;;2.57;100.00;97691.13;4454382;32;20400;-67
2023/03/07 00:33:27;;;;;;;;;;;;;;;2.58;100.00;97690.19;4454889;32;19976;-67
2023/03/07 00:35:55;;;;;;;;;;;;;;;2.59;100.00;97691.00;4454660;32;20353;-67
2023/03/07 00:38:23;;;;;;;;;;;;;;;2.62;100.00;97683.84;4454714;32;20007;-67
2023/03/07 00:40:57;;;;;;;;;;;;;;;2.60;100.00;97684.91;4454735;32;19981;-67
2023/03/07 00:43:24;;;;;;;;;;;;;;;2.61;100.00;97684.78;4454982;32;20036;-67
2023/03/07 00:45:51;;;;;;;;;;;;;;;2.62;100.00;97683.00;4454778;32;20055;-67
2023/03/07 00:48:19;;;;;;;;;;;;;;;2.66;100.00;97679.28;4454760;32;20036;-67
2023/03/07 00:50:50;;;;;;;;;;;;;;;2.64;100.00;97681.97;4454782;32;20451;-67
2023/03/07 00:53:17;;;;;;;;;;;;;;;2.67;100.00;97668.00;4454766;32;20455;-67
2023/03/07 00:55:58;;;;;;;;;;;;;;;2.72;100.00;97667.66;4440383;32;20032;-67
2023/03/07 00:58:26;;;;;;;;;;;;;;;2.70;100.00;97666.94;4455020;32;20016;-67
2023/03/07 01:00:54;;;;;;;;;;;;;;;2.76;100.00;97666.50;4454551;32;19980;-67
2023/03/07 01:03:22;;;;;;;;;;;;;;;2.72;100.00;97660.72;4454598;32;20340;-67
2023/03/07 01:05:49;;;;;;;;;;;;;;;2.77;100.00;97661.22;4454493;32;19985;-67
2023/03/07 01:08:19;;;;;;;;;;;;;;;2.82;100.00;97659.09;4454879;32;20448;-67
2023/03/07 01:10:50;;;;;;;;;;;;;;;2.80;100.00;97660.13;4449203;32;20033;-67
2023/03/07 01:13:18;;;;;;;;;;;;;;;2.72;100.00;97668.47;4442632;32;20308;-67
2023/03/07 01:15:45;;;;;;;;;;;;;;;2.66;100.00;97664.59;4454295;32;20397;-67
2023/03/07 01:18:13;;;;;;;;;;;;;;;2.62;100.00;97658.00;4454786;32;20022;-67
2023/03/07 01:20:41;;;;;;;;;;;;;;;2.64;100.00;97655.31;4454652;32;20575;-67
2023/03/07 01:23:08;;;;;;;;;;;;;;;2.61;100.00;97660.69;4454421;32;20325;-67
2023/03/07 01:25:39;;;;;;;;;;;;;;;2.67;100.00;97655.88;4454713;32;20032;-67
2023/03/07 01:28:08;;;;;;;;;;;;;;;2.66;100.00;97656.84;4454628;32;20400;-67
2023/03/07 01:30:35;;;;;;;;;;;;;;;2.62;100.00;97657.16;4454448;32;20026;-67
2023/03/07 01:33:03;;;;;;;;;;;;;;;2.66;100.00;97664.59;4454378;32;20367;-67
2023/03/07 01:35:35;;;;;;;;;;;;;;;2.69;100.00;97660.94;4454483;32;20444;-67
2023/03/07 01:38:02;;;;;;;;;;;;;;;2.75;100.00;97664.84;4454351;32;19968;-67
2023/03/07 01:40:31;;;;;;;;;;;;;;;2.75;100.00;97664.84;4453987;32;20345;-67
2023/03/07 01:43:34;;;;;;;;;;;;;;;2.78;100.00;97662.84;4454512;32;19985;-67
2023/03/07 01:46:17;;;;;;;;;;;;;;;2.79;100.00;97658.50;4421409;32;19991;-67
2023/03/07 01:48:45;;;;;;;;;;;;;;;2.82;100.00;97651.31;4421452;32;19980;-67
2023/03/07 01:51:12;;;;;;;;;;;;;;;2.78;100.00;97654.25;4408689;32;20089;-67
2023/03/07 01:53:40;;;;;;;;;;;;;;;2.74;100.00;97639.91;4421372;32;19989;-67
2023/03/07 01:56:08;;;;;;;;;;;;;;;2.73;100.00;97635.69;4421353;32;20446;-67
2023/03/07 01:58:37;;;;;;;;;;;;;;;2.76;100.00;97638.03;4421171;32;20099;-67
2023/03/07 02:01:08;;;;;;;;;;;;;;;2.75;100.00;97631.22;4421339;32;20571;-67
2023/03/07 02:03:38;;;;;;;;;;;;;;;2.75;100.00;97626.03;4420994;32;20076;-67
2023/03/07 02:06:09;;;;;;;;;;;;;;;2.76;100.00;97628.50;4421056;32;20168;-67
2023/03/07 02:08:37;;;;;;;;;;;;;;;2.81;100.00;97635.91;4421031;32;19973;-67
2023/03/07 02:11:05;;;;;;;;;;;;;;;2.72;100.00;97634.03;4401491;32;20001;-67
2023/03/07 02:13:32;;;;;;;;;;;;;;;2.71;100.00;97629.78;4395057;32;83900;-67
2023/03/07 02:16:00;;;;;;;;;;;;;;;2.65;100.00;97631.09;4421010;32;20008;-67
2023/03/07 02:18:29;;;;;;;;;;;;;;;2.68;100.00;97620.53;4420829;32;20097;-67
2023/03/07 02:21:08;;;;;;;;;;;;;;;2.67;100.00;97624.84;4449373;32;19977;-67
2023/03/07 02:23:42;;;;;;;;;;;;;;;2.64;100.00;97629.44;4440770;32;20008;-67
2023/03/07 02:26:10;;;;;;;;;;;;;;;2.57;100.00;97638.59;4454164;32;20059;-67
2023/03/07 02:28:41;;;;;;;;;;;;;;;2.55;100.00;97643.88;4440159;32;20001;-67
2023/03/07 02:31:10;;;;;;;;;;;;;;;2.53;100.00;97645.75;4440911;32;19992;-67
2023/03/07 02:33:38;;;;;;;;;;;;;;;2.48;100.00;97640.09;4439854;32;20046;-67
2023/03/07 02:36:10;;;;;;;;;;;;;;;2.57;100.00;97648.94;4453952;32;20393;-67
2023/03/07 02:38:38;;;;;;;;;;;;;;;2.46;100.00;97644.56;4440311;32;20039;-67
2023/03/07 02:41:08;;;;;;;;;;;;;;;2.47;100.00;97646.22;4454009;32;19995;-67
2023/03/07 02:43:35;;;;;;;;;;;;;;;2.47;100.00;97643.63;4439616;32;20675;-67
2023/03/07 02:46:03;;;;;;;;;;;;;;;2.44;100.00;97636.91;4454162;32;19968;-67
2023/03/07 02:48:31;;;;;;;;;;;;;;;2.45;100.00;97636.00;4454148;32;20052;-67
2023/03/07 02:50:58;;;;;;;;;;;;;;;2.43;100.00;97631.88;4454207;32;20006;-67
2023/03/07 02:53:27;;;;;;;;;;;;;;;2.41;100.00;97637.16;4452671;32;20021;-67
2023/03/07 02:55:54;;;;;;;;;;;;;;;2.41;100.00;97633.75;4453761;32;20339;-67
2023/03/07 02:58:21;;;;;;;;;;;;;;;2.37;100.00;97637.50;4453902;32;19973;-67
2023/03/07 03:00:49;;;;;;;;;;;;;;;2.40;100.00;97640.66;4454044;32;20290;-67
2023/03/07 03:03:16;;;;;;;;;;;;;;;2.41;100.00;97636.34;4453543;32;19981;-67
2023/03/07 03:05:43;;;;;;;;;;;;;;;2.41;100.00;97636.34;4453713;32;19994;-67
2023/03/07 03:08:12;;;;;;;;;;;;;;;2.37;100.00;97629.75;4453688;32;19968;-67
2023/03/07 03:10:39;;;;;;;;;;;;;;;2.41;100.00;97637.16;4448984;32;20041;-67
2023/03/07 03:13:07;;;;;;;;;;;;;;;2.40;100.00;97626.94;4440309;32;19994;-67
2023/03/07 03:15:34;;;;;;;;;;;;;;;2.31;100.00;97629.25;4453535;32;20528;-67
2023/03/07 03:18:04;;;;;;;;;;;;;;;2.26;100.00;97625.38;4453461;32;19977;-67
2023/03/07 03:20:31;;;;;;;;;;;;;;;2.16;100.00;97626.97;4453498;32;20331;-67
2023/03/07 03:22:58;;;;;;;;;;;;;;;2.18;100.00;97625.94;4453340;32;19980;-67
2023/03/07 03:25:26;;;;;;;;;;;;;;;2.21;100.00;97628.28;4453416;32;19984;-67
2023/03/07 03:27:53;;;;;;;;;;;;;;;2.21;100.00;97630.87;4453165;32;20079;-67
2023/03/07 03:30:21;;;;;;;;;;;;;;;2.20;100.00;97621.47;4453659;32;19991;-67
2023/03/07 03:32:49;;;;;;;;;;;;;;;2.20;100.00;97626.62;4453288;32;19988;-67
2023/03/07 03:35:17;;;;;;;;;;;;;;;2.17;100.00;97621.69;4453470;32;20321;-67
2023/03/07 03:37:45;;;;;;;;;;;;;;;2.24;100.00;97628.06;4453317;32;19979;-67
2023/03/07 03:40:16;;;;;;;;;;;;;;;2.26;100.00;97621.00;4453292;32;19981;-67
2023/03/07 03:42:43;;;;;;;;;;;;;;;2.26;100.00;97609.88;4453236;32;20014;-67
2023/03/07 03:45:13;;;;;;;;;;;;;;;2.29;100.00;97614.81;4453193;32;19990;-67
2023/03/07 03:47:40;;;;;;;;;;;;;;;2.25;100.00;97611.59;4453354;32;20580;-67
2023/03/07 03:50:09;;;;;;;;;;;;;;;2.23;100.00;97610.91;4453292;32;20044;-67
2023/03/07 03:52:36;;;;;;;;;;;;;;;2.19;100.00;97614.66;4453001;32;19981;-67
2023/03/07 03:55:04;;;;;;;;;;;;;;;2.22;100.00;97611.03;4452943;32;19995;-67
2023/03/07 03:57:31;;;;;;;;;;;;;;;2.26;100.00;97615.84;4452699;32;20028;-67
2023/03/07 03:59:59;;;;;;;;;;;;;;;2.26;100.00;97615.03;4453085;32;20367;-67
2023/03/07 04:02:29;;;;;;;;;;;;;;;2.31;100.00;97616.31;4453058;32;20007;-67
2023/03/07 04:04:57;;;;;;;;;;;;;;;2.31;100.00;97616.31;4454665;32;20040;-67
2023/03/07 04:07:27;;;;;;;;;;;;;;;2.28;100.00;97619.12;4454954;32;20432;-67
2023/03/07 04:09:55;;;;;;;;;;;;;;;2.21;100.00;97617.97;4455113;32;20467;-67
2023/03/07 04:12:23;;;;;;;;;;;;;;;2.16;100.00;97620.03;4424433;32;20053;-67
2023/03/07 04:14:50;;;;;;;;;;;;;;;2.05;100.00;97614.84;4450476;32;20092;-67
2023/03/07 04:17:17;;;;;;;;;;;;;;;2.04;100.00;97616.59;4454843;32;20045;-67
2023/03/07 04:19:45;;;;;;;;;;;;;;;2.10;100.00;97620.50;4455137;32;19995;-67
2023/03/07 04:22:12;;;;;;;;;;;;;;;2.15;100.00;97628.75;4454993;32;20363;-67
2023/03/07 04:24:40;;;;;;;;;;;;;;;2.18;100.00;97625.94;4454836;32;19997;-67
2023/03/07 04:27:08;;;;;;;;;;;;;;;2.21;100.00;97627.44;4455181;32;19995;-67
2023/03/07 04:29:35;;;;;;;;;;;;;;;2.17;100.00;97629.44;4454984;32;19980;-67
2023/03/07 04:32:03;;;;;;;;;;;;;;;2.15;100.00;97636.50;4455174;32;19988;-67
2023/03/07 04:34:31;;;;;;;;;;;;;;;2.20;100.00;97636.97;4454650;32;20433;-67
2023/03/07 04:36:58;;;;;;;;;;;;;;;2.16;100.00;97645.87;4454867;32;19968;-67
2023/03/07 04:39:26;;;;;;;;;;;;;;;2.24;100.00;97648.75;4455058;32;19988;-67
2023/03/07 04:41:54;;;;;;;;;;;;;;;2.20;100.00;97646.50;4455089;32;19984;-67
2023/03/07 04:44:21;;;;;;;;;;;;;;;2.26;100.00;97648.63;4454813;32;20424;-67
2023/03/07 04:46:48;;;;;;;;;;;;;;;2.21;100.00;97650.72;4454977;32;20063;-67
2023/03/07 04:49:16;;;;;;;;;;;;;;;2.24;100.00;97648.75;4454752;32;19988;-67
2023/03/07 04:51:44;;;;;;;;;;;;;;;2.21;100.00;97648.97;4454762;32;19988;-67
2023/03/07 04:54:12;;;;;;;;;;;;;;;2.17;100.00;97644.94;4454734;32;20396;-67
2023/03/07 04:56:40;;;;;;;;;;;;;;;2.17;100.00;97652.69;4454616;32;20008;-67
2023/03/07 04:59:08;;;;;;;;;;;;;;;2.16;100.00;97648.47;4437226;32;20000;-67
2023/03/07 05:01:35;;;;;;;;;;;;;;;2.11;100.00;97646.22;4434867;32;19988;-67
2023/03/07 05:04:04;;;;;;;;;;;;;;;2.07;100.00;97639.63;4433665;32;20019;-67
2023/03/07 05:06:31;;;;;;;;;;;;;;;2.08;100.00;97643.84;4429922;32;20029;-67
2023/03/07 05:08:59;;;;;;;;;;;;;;;2.14;100.00;97642.59;4438733;32;20047;-67
2023/03/07 05:11:26;;;;;;;;;;;;;;;2.13;100.00;97646.09;4436646;32;19981;-67
2023/03/07 05:13:54;;;;;;;;;;;;;;;2.14;100.00;97647.75;4439552;32;20261;-67
2023/03/07 05:16:22;;;;;;;;;;;;;;;2.17;100.00;97652.69;4431639;32;20004;-67
2023/03/07 05:18:50;;;;;;;;;;;;;;;2.15;100.00;97644.25;4434473;32;20449;-67
2023/03/07 05:21:18;;;;;;;;;;;;;;;2.15;100.00;97644.25;4436828;32;19996;-67
2023/03/07 05:23:45;;;;;;;;;;;;;;;2.14;100.00;97647.75;4431692;32;20047;-67
2023/03/07 05:26:13;;;;;;;;;;;;;;;2.16;100.00;97653.63;4429488;32;20636;-67
2023/03/07 05:28:40;;;;;;;;;;;;;;;2.20;100.00;97646.50;4428229;32;20041;-67
2023/03/07 05:31:07;;;;;;;;;;;;;;;2.26;100.00;97653.78;4430449;32;20008;-67
2023/03/07 05:33:35;;;;;;;;;;;;;;;2.30;100.00;97657.78;4430185;32;19976;-67
2023/03/07 05:36:02;;;;;;;;;;;;;;;2.36;100.00;97651.34;4429499;32;20016;-67
2023/03/07 05:38:30;;;;;;;;;;;;;;;2.34;100.00;97648.06;4430803;32;19985;-67
2023/03/07 05:40:57;;;;;;;;;;;;;;;2.36;100.00;97657.31;4431752;32;19981;-67
2023/03/07 05:43:25;;;;;;;;;;;;;;;2.38;100.00;97660.63;4429375;32;19993;-67
2023/03/07 05:45:52;;;;;;;;;;;;;;;2.30;100.00;97661.22;4427051;32;19999;-67
2023/03/07 05:48:20;;;;;;;;;;;;;;;2.29;100.00;97656.97;4423373;32;19981;-67
2023/03/07 05:50:47;;;;;;;;;;;;;;;2.26;100.00;97657.19;4409376;32;20000;-67
2023/03/07 05:53:15;;;;;;;;;;;;;;;2.25;100.00;97662.47;4432208;32;20048;-67
2023/03/07 05:55:43;;;;;;;;;;;;;;;2.23;100.00;97662.59;4430395;32;20071;-67
2023/03/07 05:58:11;;;;;;;;;;;;;;;2.27;100.00;97661.44;4434172;32;19989;-67
2023/03/07 06:00:39;;;;;;;;;;;;;;;2.27;100.00;97660.59;4434375;32;19985;-67
2023/03/07 06:03:07;;;;;;;;;;;;;;;2.31;100.00;97664.59;4433722;32;19985;-67
2023/03/07 06:05:34;;;;;;;;;;;;;;;2.40;100.00;97665.69;4434287;32;20012;-67
2023/03/07 06:08:03;;;;;;;;;;;;;;;2.52;100.00;97657.03;4438050;32;19984;-67
2023/03/07 06:10:32;;;;;;;;;;;;;;;2.57;100.00;97660.09;4430241;32;20054;-67
2023/03/07 06:12:59;;;;;;;;;;;;;;;2.69;100.00;97673.88;4433938;32;19992;-66
2023/03/07 06:15:26;;;;;;;;;;;;;;;2.82;100.00;97678.97;4443342;32;19985;-66
2023/03/07 06:17:54;;;;;;;;;;;;;;;2.96;100.00;97670.97;4423082;32;19989;-66
2023/03/07 06:20:22;;;;;;;;;;;;;;;2.92;100.00;97679.91;4423099;32;19985;-65
2023/03/07 06:22:51;;;;;;;;;;;;;;;2.96;100.00;97675.31;4433660;32;20360;-67
2023/03/07 06:25:20;;;;;;;;;;;;;;;3.12;100.00;97687.91;4434706;32;19977;-67
2023/03/07 06:27:48;;;;;;;;;;;;;;;3.33;100.00;97682.84;4436456;32;19995;-67
2023/03/07 06:30:15;;;;;;;;;;;;;;;3.55;100.00;97692.37;4428259;32;20358;-67
2023/03/07 06:32:42;;;;;;;;;;;;;;;3.69;100.00;97692.13;4433562;32;19969;-66
2023/03/07 06:35:10;;;;;;;;;;;;;;;3.79;100.00;97694.00;4435126;32;19992;-67
2023/03/07 06:37:37;;;;;;;;;;;;;;;3.87;100.00;97705.38;4430796;32;20353;-67
2023/03/07 06:40:08;;;;;;;;;;;;;;;3.91;100.00;97700.81;4434213;32;19995;-67
2023/03/07 06:42:35;;;;;;;;;;;;;;;4.11;100.00;97703.56;4432700;32;20040;-67
2023/03/07 06:45:03;;;;;;;;;;;;;;;4.24;100.00;97702.47;4434360;32;20006;-67
2023/03/07 06:47:31;;;;;;;;;;;;;;;4.33;100.00;97713.87;4434882;32;20447;-67
2023/03/07 06:49:59;;;;;;;;;;;;;;;4.23;100.00;97702.59;4433026;32;20036;-67
2023/03/07 06:52:26;;;;;;;;;;;;;;;4.21;100.00;97699.28;4433596;32;20026;-67
2023/03/07 06:54:53;;;;;;;;;;;;;;;4.40;100.00;97706.41;4430335;32;19989;-67
2023/03/07 06:57:21;;;;;;;;;;;;;;;4.60;100.00;97707.37;4431917;32;20007;-67
2023/03/07 06:59:48;;;;;;;;;;;;;;;4.57;100.00;97707.63;4431989;32;19980;-67
2023/03/07 07:02:15;;;;;;;;;;;;;;;4.86;100.00;97710.44;4434411;32;21264;-67
2023/03/07 07:04:43;;;;;;;;;;;;;;;5.11;100.00;97711.78;4429233;32;20009;-67
2023/03/07 07:07:11;;;;;;;;;;;;;;;5.24;100.00;97721.13;4433182;32;20302;-67
2023/03/07 07:09:38;;;;;;;;;;;;;;;5.19;99.75;97716.31;4434008;32;20345;-67
2023/03/07 07:12:06;;;;;;;;;;;;;;;5.38;97.39;97710.41;4424126;32;19977;-67
2023/03/07 07:14:33;;;;;;;;;;;;;;;5.50;95.98;97709.34;4431609;32;20008;-67
2023/03/07 07:17:01;;;;;;;;;;;;;;;5.56;95.55;97715.00;4432699;32;19992;-67
2023/03/07 07:19:28;;;;;;;;;;;;;;;5.58;95.91;97711.28;4434258;32;19977;-68
2023/03/07 07:21:56;;;;;;;;;;;;;;;5.63;97.14;97719.53;4435123;32;19995;-67
2023/03/07 07:24:24;;;;;;;;;;;;;;;5.63;97.50;97721.28;4432128;32;20039;-67
2023/03/07 07:26:51;;;;;;;;;;;;;;;5.64;98.52;97721.16;4430762;32;20045;-66
2023/03/07 07:29:19;;;;;;;;;;;;;;;5.66;98.03;97721.87;4434386;32;19981;-69
2023/03/07 07:31:48;;;;;;;;;;;;;;;5.60;95.89;97730.19;4429449;32;19985;-66
2023/03/07 07:34:16;;;;;;;;;;;;;;;5.69;95.01;97731.16;4436210;32;19985;-67
2023/03/07 07:36:43;;;;;;;;;;;;;;;5.70;91.47;97725.03;4431603;32;20007;-66
2023/03/07 07:39:11;;;;;;;;;;;;;;;5.73;92.26;97719.56;4435321;32;19992;-65
2023/03/07 07:41:40;;;;;;;;;;;;;;;5.69;90.57;97731.16;4421595;32;20030;-66
2023/03/07 07:44:07;;;;;;;;;;;;;;;5.80;90.41;97728.47;4438000;32;19989;-66
2023/03/07 07:46:35;;;;;;;;;;;;;;;5.85;88.91;97734.09;4432849;32;19981;-66
2023/03/07 07:49:03;;;;;;;;;;;;;;;5.80;88.42;97725.88;4431901;32;19994;-65
2023/03/07 07:51:30;;;;;;;;;;;;;;;5.83;85.75;97730.81;4432636;32;20000;-65
2023/03/07 07:53:58;;;;;;;;;;;;;;;5.83;83.59;97733.41;4430198;32;19973;-66
2023/03/07 07:56:25;;;;;;;;;;;;;;;6.01;84.72;97732.78;4431189;32;19993;-66
2023/03/07 07:58:52;;;;;;;;;;;;;;;6.06;84.46;97730.63;4436753;32;20015;-66
2023/03/07 08:01:21;;;;;;;;;;;;;;;6.23;84.40;97723.94;4432949;32;20391;-66
2023/03/07 08:03:48;;;;;;;;;;;;;;;6.44;83.18;97720.38;4435262;32;20023;-66
2023/03/07 08:06:20;;;;;;;;;;;;;;;6.49;80.17;97716.41;4431620;32;20005;-67
2023/03/07 08:08:47;;;;;;;;;;;;;;;6.78;82.10;97714.75;4429723;32;20294;-65
2023/03/07 08:11:16;;;;;;;;;;;;;;;6.96;79.54;97717.44;4430967;32;20041;-65
2023/03/07 08:13:43;;;;;;;;;;;;;;;7.06;76.56;97723.47;4436210;32;20368;-66
2023/03/07 08:16:13;;;;;;;;;;;;;;;7.06;76.96;97721.69;4434642;32;20349;-66
2023/03/07 08:18:41;;;;;;;;;;;;;;;7.22;76.74;97718.50;4438156;32;19993;-67
2023/03/07 08:21:09;;;;;;;;;;;;;;;7.43;76.26;97714.84;4435866;32;20424;-67
2023/03/07 08:23:36;;;;;;;;;;;;;;;7.56;75.32;97717.13;4426505;32;20022;-67
2023/03/07 08:26:04;;;;;;;;;;;;;;;7.63;74.76;97719.03;4435160;32;20353;-67
2023/03/07 08:28:32;;;;;;;;;;;;;;;7.83;77.14;97713.72;4432763;32;20371;-66
2023/03/07 08:31:10;;;;;;;;;;;;;;;8.04;72.10;97723.88;4431049;32;19986;-65
2023/03/07 08:33:38;;;;;;;;;;;;;;;8.06;67.98;97721.13;4434579;32;20434;-67
2023/03/07 08:36:05;;;;;;;;;;;;;;;8.13;69.29;97724.78;4425944;32;19996;-66
2023/03/07 08:38:35;;;;;;;;;;;;;;;8.25;71.66;97723.59;4434970;32;19981;-67
2023/03/07 08:41:03;;;;;;;;;;;;;;;8.37;69.11;97728.59;4436312;32;19993;-67
2023/03/07 08:43:31;;;;;;;;;;;;;;;8.30;69.05;97729.19;4419240;32;20036;-67
2023/03/07 08:45:59;;;;;;;;;;;;;;;8.38;66.59;97727.63;4431242;32;19981;-67
2023/03/07 08:48:26;;;;;;;;;;;;;;;8.48;67.49;97733.62;4430862;32;20005;-67
2023/03/07 08:50:54;;;;;;;;;;;;;;;8.59;67.32;97738.63;4427790;32;19985;-67
2023/03/07 08:53:21;;;;;;;;;;;;;;;8.82;64.86;97735.53;4433509;32;20011;-67
2023/03/07 08:55:49;;;;;;;;;;;;;;;8.75;66.59;97732.72;4434386;32;20133;-67
2023/03/07 08:58:16;;;;;;;;;;;;;;;8.83;66.04;97727.56;4434532;32;19984;-67
2023/03/07 09:00:43;;;;;;;;;;;;;;;8.90;64.46;97730.37;4436800;32;20046;-67
2023/03/07 09:03:11;;;;;;;;;;;;;;;9.02;64.35;97733.56;4434476;32;19988;-68
2023/03/07 09:05:39;;;;;;;;;;;;;;;8.93;64.31;97735.28;4435638;32;19984;-67
2023/03/07 09:08:06;;;;;;;;;;;;;;;9.09;67.32;97733.78;4437044;32;19988;-67
2023/03/07 09:10:34;;;;;;;;;;;;;;;8.99;67.55;97734.72;4428751;32;20021;-67
2023/03/07 09:13:01;;;;;;;;;;;;;;;8.97;68.42;97726.19;4431092;32;20003;-67
2023/03/07 09:15:28;;;;;;;;;;;;;;;8.93;69.04;97729.25;4429545;32;19981;-68
2023/03/07 09:17:57;;;;;;;;;;;;;;;8.87;68.51;97743.72;4432554;32;20350;-67
2023/03/07 09:20:24;;;;;;;;;;;;;;;8.99;68.62;97741.69;4433921;32;20278;-67
2023/03/07 09:22:53;;;;;;;;;;;;;;;8.93;63.78;97744.94;4434560;32;19988;-64
2023/03/07 09:25:21;;;;;;;;;;;;;;;9.10;61.61;97733.62;4431125;32;20326;-67
2023/03/07 09:27:49;;;;;;;;;;;;;;;9.08;59.15;97737.37;4432464;32;20356;-67
2023/03/07 09:30:18;;;;;;;;;;;;;;;9.15;58.96;97741.81;4438332;32;19977;-67
2023/03/07 09:32:45;;;;;;;;;;;;;;;9.06;60.71;97735.72;4432930;32;20033;-67
2023/03/07 09:35:12;;;;;;;;;;;;;;;9.32;61.78;97734.91;4432456;32;20624;-67
2023/03/07 09:37:40;;;;;;;;;;;;;;;9.39;59.79;97742.94;4434535;32;20376;-68
2023/03/07 09:40:09;;;;;;;;;;;;;;;9.38;57.37;97739.50;4432847;32;20003;-68
2023/03/07 09:42:54;;;;;;;;;;;;;;;9.54;59.08;97737.97;4419948;32;20314;-68
2023/03/07 09:45:27;;;;;;;;;;;;;;;9.57;56.74;97732.44;4419857;32;19993;-68
2023/03/07 09:48:08;;;;;;;;;;;;;;;9.55;57.51;97740.44;4432421;32;19993;-67
2023/03/07 09:50:40;;;;;;;;;;;;;;;9.39;59.80;97740.34;4431302;32;20363;-67
2023/03/07 09:53:07;;;;;;;;;;;;;;;9.62;58.11;97734.56;4421702;32;19977;-67
2023/03/07 09:55:35;;;;;;;;;;;;;;;9.93;59.09;97732.22;4419511;32;20114;-67
2023/03/07 09:58:06;;;;;;;;;;;;;;;9.71;57.29;97729.22;4437314;32;20392;-67
2023/03/07 10:00:44;;;;;;;;;;;;;;;9.87;59.15;97732.84;4415923;32;20399;-67
2023/03/07 10:03:17;;;;;;;;;;;;;;;9.80;58.27;97731.88;4429245;32;19985;-67
2023/03/07 10:05:47;;;;;;;;;;;;;;;9.81;57.70;97729.09;4428748;32;19985;-67
2023/03/07 10:08:16;;;;;;;;;;;;;;;9.94;58.99;97726.81;4435175;32;20056;-67
2023/03/07 10:10:52;;;;;;;;;;;;;;;10.17;59.50;97721.00;4415157;32;20380;-67
2023/03/07 10:13:40;;;;;;;;;;;;;;;10.17;57.42;97723.63;4432402;32;20384;-67
2023/03/07 10:16:13;;;;;;;;;;;;;;;10.52;58.33;97728.78;4381977;32;20458;-67
2023/03/07 10:18:46;;;;;;;;;;;;;;;10.72;53.25;97730.13;4384839;32;20160;-67
2023/03/07 10:21:16;;;;;;;;;;;;;;;10.91;50.65;97733.38;4380658;32;20396;-67
2023/03/07 10:23:55;;;;;;;;;;;;;;;10.21;47.14;97724.94;4381869;32;19977;-67
2023/03/07 10:26:28;;;;;;;;;;;;;;;10.47;47.96;97726.66;4371599;32;20024;-67
2023/03/07 10:28:56;;;;;;;;;;;;;;;10.78;51.25;97726.84;4371552;32;20044;-67
2023/03/07 10:31:24;;;;;;;;;;;;;;;10.82;51.00;97733.41;4381338;32;20075;-67
2023/03/07 10:33:53;;;;;;;;;;;;;;;11.01;53.87;97726.97;4383883;32;20002;-67
2023/03/07 10:36:21;;;;;;;;;;;;;;;11.26;50.32;97732.19;4385066;32;20036;-67
2023/03/07 10:38:49;;;;;;;;;;;;;;;11.41;52.48;97726.25;4382207;32;19998;-67
2023/03/07 10:41:17;;;;;;;;;;;;;;;11.69;50.72;97727.47;4378092;32;20359;-67
2023/03/07 10:43:45;;;;;;;;;;;;;;;11.84;50.76;97722.34;4379239;32;19978;-67
2023/03/07 10:46:20;;;;;;;;;;;;;;;11.88;51.70;97723.63;4382416;32;19989;-67
2023/03/07 10:48:54;;;;;;;;;;;;;;;11.84;51.30;97717.09;4383718;32;22339;-67
2023/03/07 10:51:27;;;;;;;;;;;;;;;11.26;52.19;97711.19;4385126;32;20005;-67
2023/03/07 10:53:55;;;;;;;;;;;;;;;11.17;53.21;97713.03;4418063;32;20044;-67
2023/03/07 10:56:23;;;;;;;;;;;;;;;11.10;55.56;97703.41;4417700;32;19997;-67
2023/03/07 10:59:01;;;;;;;;;;;;;;;11.24;56.41;97696.66;4436418;32;19985;-67
2023/03/07 11:01:29;;;;;;;;;;;;;;;10.78;58.68;97694.56;4431861;32;19976;-68
2023/03/07 11:04:04;;;;;;;;;;;;;;;11.17;58.50;97697.31;4438314;32;20014;-67
2023/03/07 11:06:43;;;;;;;;;;;;;;;11.38;56.42;97692.50;4418526;32;20068;-67
2023/03/07 11:09:29;;;;;;;;;;;;;;;11.15;50.59;97690.59;4420230;32;19981;-67
2023/03/07 11:11:58;;;;;;;;;;;;;;;10.88;54.84;97691.78;4434365;32;19972;-67
2023/03/07 11:14:28;;;;;;;;;;;;;;;10.80;55.16;97682.94;4438474;32;19993;-66
2023/03/07 11:16:59;;;;;;;;;;;;;;;10.54;55.54;97684.94;4420915;32;20644;-67
2023/03/07 11:19:30;;;;;;;;;;;;;;;10.44;61.89;97682.47;4432548;32;19985;-66
2023/03/07 11:21:57;;;;;;;;;;;;;;;10.30;67.92;97665.56;4437177;32;20024;-66
2023/03/07 11:24:29;;;;;;;;;;;;;;;10.19;70.72;97673.72;4433273;32;20464;-66
2023/03/07 11:26:58;;;;;;;;;;;;;;;9.80;70.28;97669.09;4421872;32;20075;-67
2023/03/07 11:29:27;;;;;;;;;;;;;;;9.73;71.01;97667.09;4432281;32;19992;-66
2023/03/07 11:32:24;;;;;;;;;;;;;;;9.50;70.58;97655.59;4435705;32;20000;-67
2023/03/07 11:34:53;;;;;;;;;;;;;;;9.33;71.99;97652.91;4372026;32;20004;-66
2023/03/07 11:37:20;;;;;;;;;;;;;;;9.42;71.73;97651.16;4389865;32;20020;-66
2023/03/07 11:39:58;;;;;;;;;;;;;;;9.41;71.55;97645.09;4385894;32;20005;-66
2023/03/07 11:42:31;;;;;;;;;;;;;;;9.39;71.68;97641.00;4385978;32;20165;-66
2023/03/07 11:44:59;;;;;;;;;;;;;;;9.41;73.99;97646.87;4372820;32;20015;-66
2023/03/07 11:47:44;;;;;;;;;;;;;;;9.21;74.34;97652.34;4369782;32;20008;-66
2023/03/07 11:50:12;;;;;;;;;;;;;;;9.08;77.08;97649.34;4370434;32;20176;-66
2023/03/07 11:52:39;;;;;;;;;;;;;;;9.23;77.20;97644.34;4385823;32;19997;-66
2023/03/07 11:55:14;;;;;;;;;;;;;;;9.04;73.50;97651.47;4384343;32;20036;-66
2023/03/07 11:57:55;;;;;;;;;;;;;;;9.07;72.42;97647.72;4378512;32;20002;-64
2023/03/07 12:00:28;;;;;;;;;;;;;;;8.89;72.42;97642.56;4385155;32;20011;-64
2023/03/07 12:03:10;;;;;;;;;;;;;;;9.12;71.41;97644.66;4378207;32;20371;-64
2023/03/07 12:06:14;;;;;;;;;;;;;;;9.26;69.82;97638.00;4385771;32;19990;-64
2023/03/07 12:09:02;;;;;;;;;;;;;;;9.34;69.35;97638.03;4350538;32;20457;-64
2023/03/07 12:11:35;;;;;;;;;;;;;;;9.41;68.25;97639.84;4365094;32;20750;-64
2023/03/07 12:14:03;;;;;;;;;;;;;;;9.42;66.53;97635.47;4377435;32;20008;-65
2023/03/07 12:16:32;;;;;;;;;;;;;;;9.47;67.91;97625.34;4381654;32;19970;-66
2023/03/07 12:19:04;;;;;;;;;;;;;;;9.43;70.43;97636.28;4382377;32;20006;-66
2023/03/07 12:21:50;;;;;;;;;;;;;;;9.50;69.46;97630.25;4383419;32;19997;-66
2023/03/07 12:24:27;;;;;;;;;;;;;;;9.53;68.09;97631.75;4384867;32;20049;-66
2023/03/07 12:26:56;;;;;;;;;;;;;;;9.50;69.76;97630.25;4387135;32;20041;-66
2023/03/07 12:29:26;;;;;;;;;;;;;;;9.62;65.85;97629.97;4375007;32;20049;-67
2023/03/07 12:31:55;;;;;;;;;;;;;;;9.45;66.37;97632.53;4383952;32;20013;-67
2023/03/07 12:34:32;;;;;;;;;;;;;;;9.30;66.03;97621.06;4386166;32;20015;-67
2023/03/07 12:37:02;;;;;;;;;;;;;;;9.28;67.40;97622.97;4384598;32;20001;-66
2023/03/07 12:40:07;;;;;;;;;;;;;;;9.13;67.42;97620.97;4383475;32;20013;-67
2023/03/07 12:42:40;;;;;;;;;;;;;;;9.07;68.06;97621.59;4353421;32;20381;-67
2023/03/07 12:45:12;;;;;;;;;;;;;;;9.09;67.74;97619.62;4357510;32;20085;-67
2023/03/07 12:47:52;;;;;;;;;;;;;;;8.80;70.38;97617.38;4378953;32;19994;-65
2023/03/07 12:50:27;;;;;;;;;;;;;;;8.44;74.47;97620.06;4370338;32;20002;-66
2023/03/07 12:53:15;;;;;;;;;;;;;;;8.35;75.10;97616.53;4371037;32;19994;-67
2023/03/07 12:56:05;;;;;;;;;;;;;;;8.19;78.45;97604.19;4371084;32;19990;-65
2023/03/07 12:58:55;;;;;;;;;;;;;;;8.26;77.41;97607.00;4359386;32;19994;-66
2023/03/07 13:01:24;;;;;;;;;;;;;;;8.32;76.36;97606.41;4359567;32;20365;-66
2023/03/07 13:03:55;;;;;;;;;;;;;;;8.26;75.36;97610.44;4348364;32;19994;-66